createdAt,value
2022-11-04T00:03:12.996Z,10.65
2022-11-04T00:07:33.342Z,8.98
2022-11-04T00:11:53.680Z,6.82
2022-11-04T00:16:13.838Z,3.55
2022-11-04T00:20:34.059Z,4.40
2022-11-04T00:24:45.155Z,3.92
2022-11-04T00:28:47.094Z,5.25
2022-11-04T00:33:07.107Z,6.43
2022-11-04T00:37:08.812Z,7.22
2022-11-04T00:41:30.069Z,2.90
2022-11-04T00:45:32.031Z,3.15
2022-11-04T00:49:33.717Z,5.50
2022-11-04T00:53:35.407Z,3.92
2022-11-04T00:57:37.093Z,3.45
2022-11-04T01:01:38.819Z,4.43
2022-11-04T01:05:40.655Z,4.05
2022-11-04T01:09:42.349Z,4.53
2022-11-04T01:13:44.030Z,7.15
2022-11-04T01:17:45.761Z,7.13
2022-11-04T01:21:50.840Z,6.07
2022-11-04T01:25:52.525Z,5.55
2022-11-04T01:29:54.289Z,5.47
2022-11-04T01:33:57.863Z,4.85
2022-11-04T01:37:59.682Z,6.38
2022-11-04T01:42:01.393Z,7.30
2022-11-04T01:46:03.906Z,9.55
2022-11-04T01:50:11.028Z,9.93
2022-11-04T01:58:18.499Z,9.98
2022-11-04T02:02:20.313Z,8.70
2022-11-04T02:06:22.411Z,8.95
2022-11-04T02:10:28.154Z,10.98
2022-11-04T02:14:32.161Z,11.73
2022-11-04T02:18:48.047Z,11.57
2022-11-04T02:22:58.426Z,13.48
2022-11-04T02:27:23.725Z,11.65
2022-11-04T02:32:42.344Z,13.00
2022-11-04T02:38:11.007Z,14.40
2022-11-04T02:42:48.196Z,13.48
2022-11-04T02:47:57.875Z,11.67
2022-11-04T02:53:12.786Z,10.60
2022-11-04T02:58:20.078Z,14.40
2022-11-04T03:03:27.418Z,13.68
2022-11-04T03:08:33.055Z,10.70
2022-11-04T03:12:48.258Z,11.05
2022-11-04T03:16:52.883Z,12.93
2022-11-04T03:20:56.778Z,13.35
2022-11-04T03:24:58.492Z,12.40
2022-11-04T03:29:19.311Z,14.05
2022-11-04T03:33:40.415Z,11.02
2022-11-04T03:37:43.225Z,12.52
2022-11-04T03:42:20.379Z,11.68
2022-11-04T03:46:22.684Z,11.25
2022-11-04T03:50:30.344Z,12.07
2022-11-04T03:54:35.705Z,10.45
2022-11-04T03:58:45.593Z,10.50
2022-11-04T04:02:56.084Z,9.60
2022-11-04T04:07:21.513Z,8.50
2022-11-04T04:11:39.303Z,10.48
2022-11-04T04:15:51.005Z,8.90
2022-11-04T04:19:58.655Z,9.90
2022-11-04T04:24:22.835Z,9.68
2022-11-04T04:28:24.626Z,7.78
2022-11-04T04:32:29.832Z,7.10
2022-11-04T04:36:35.929Z,7.72
2022-11-04T04:40:56.288Z,6.05
2022-11-04T04:45:04.585Z,5.72
2022-11-04T04:49:07.995Z,7.13
2022-11-04T04:53:10.170Z,4.57
2022-11-04T04:57:12.222Z,3.80
2022-11-04T05:01:14.047Z,4.10
2022-11-04T05:09:23.302Z,3.55
2022-11-04T05:13:29.885Z,4.05
2022-11-04T05:17:31.868Z,3.90
2022-11-04T05:21:33.696Z,3.83
2022-11-04T05:25:35.402Z,2.60
2022-11-04T05:29:37.147Z,5.68
2022-11-04T05:33:39.280Z,4.10
2022-11-04T05:37:40.995Z,5.63
2022-11-04T05:41:42.690Z,6.50
2022-11-04T05:45:44.455Z,5.95
2022-11-04T05:49:46.225Z,3.67
2022-11-04T05:53:48.146Z,3.42
2022-11-04T05:57:50.212Z,3.28
2022-11-04T06:01:52.147Z,2.85
2022-11-04T06:05:54.034Z,3.20
2022-11-04T06:09:55.825Z,2.38
2022-11-04T06:13:58.065Z,1.60
2022-11-04T06:17:59.698Z,2.70
2022-11-04T06:22:01.401Z,2.90
2022-11-04T06:26:03.338Z,1.83
2022-11-04T06:30:05.577Z,2.13
2022-11-04T06:34:07.205Z,1.30
2022-11-04T06:38:09.121Z,2.63
2022-11-04T06:42:11.002Z,1.70
2022-11-04T06:46:27.769Z,3.03
2022-11-04T06:50:29.512Z,3.07
2022-11-04T06:54:31.313Z,2.08
2022-11-04T06:58:33.013Z,4.55
2022-11-04T07:02:34.806Z,2.92
2022-11-04T07:06:38.510Z,2.70
2022-11-04T07:10:42.867Z,2.33
2022-11-04T07:14:44.560Z,2.38
2022-11-04T07:18:46.746Z,2.25
2022-11-04T07:22:48.437Z,2.00
2022-11-04T07:26:50.160Z,3.05
2022-11-04T07:30:51.926Z,2.10
2022-11-04T07:34:53.559Z,1.67
2022-11-04T07:38:55.351Z,2.60
2022-11-04T07:43:02.008Z,3.03
2022-11-04T07:47:11.564Z,1.88
2022-11-04T07:51:17.264Z,2.58
2022-11-04T07:55:19.337Z,2.67
2022-11-04T07:59:20.989Z,2.97
2022-11-04T08:03:22.718Z,4.15
2022-11-04T08:07:24.606Z,3.25
2022-11-04T08:11:28.388Z,3.83
2022-11-04T08:15:30.101Z,5.35
2022-11-04T08:19:31.810Z,3.88
2022-11-04T08:23:34.322Z,2.22
2022-11-04T08:27:36.023Z,3.30
2022-11-04T08:31:38.133Z,3.83
2022-11-04T08:35:42.788Z,3.13
2022-11-04T08:39:44.470Z,2.00
2022-11-04T08:43:46.695Z,2.97
2022-11-04T08:47:48.446Z,2.47
2022-11-04T08:51:56.422Z,2.28
2022-11-04T08:55:58.235Z,2.00
2022-11-04T09:00:00.536Z,2.45
2022-11-04T09:04:03.009Z,2.28
2022-11-04T09:08:05.089Z,2.25
2022-11-04T09:12:10.341Z,2.00
2022-11-04T09:16:13.806Z,2.30
2022-11-04T09:20:15.526Z,1.73
2022-11-04T09:24:18.387Z,2.75
2022-11-04T09:28:20.040Z,3.70
2022-11-04T09:32:21.783Z,2.40
2022-11-04T09:36:23.724Z,1.48
2022-11-04T09:40:25.715Z,1.92
2022-11-04T09:45:06.914Z,1.38
2022-11-04T09:49:07.631Z,1.25
2022-11-04T09:53:24.255Z,1.52
2022-11-04T09:57:26.288Z,1.07
2022-11-04T10:01:41.224Z,1.30
2022-11-04T10:05:51.754Z,2.78
2022-11-04T10:10:01.261Z,1.83
2022-11-04T10:14:31.415Z,1.40
2022-11-04T10:18:54.994Z,1.95
2022-11-04T10:23:17.270Z,1.40
2022-11-04T10:27:33.077Z,1.65
2022-11-04T10:31:38.663Z,1.30
2022-11-04T10:35:46.385Z,2.35
2022-11-04T10:39:48.150Z,3.33
2022-11-04T10:43:53.897Z,2.35
2022-11-04T10:48:05.895Z,3.83
2022-11-04T10:52:10.058Z,2.85
2022-11-04T10:56:11.763Z,3.33
2022-11-04T11:00:37.126Z,3.38
2022-11-04T11:04:45.080Z,2.30
2022-11-04T11:08:47.234Z,2.28
2022-11-04T11:13:08.137Z,2.97
2022-11-04T11:17:16.258Z,5.85
2022-11-04T11:21:23.919Z,3.22
2022-11-04T11:25:30.458Z,2.53
2022-11-04T11:29:40.271Z,3.00
2022-11-04T11:33:58.135Z,2.85
2022-11-04T11:38:04.085Z,3.53
2022-11-04T11:42:11.564Z,3.72
2022-11-04T11:46:13.599Z,4.38
2022-11-04T11:50:21.096Z,2.13
2022-11-04T11:54:37.712Z,2.75
2022-11-04T12:03:22.061Z,2.72
2022-11-04T12:12:06.511Z,3.78
2022-11-04T12:16:17.381Z,4.28
2022-11-04T12:20:58.068Z,3.72
2022-11-04T12:25:08.741Z,5.32
2022-11-04T12:29:10.362Z,3.97
2022-11-04T12:33:33.598Z,6.43
2022-11-04T12:37:52.390Z,5.93
2022-11-04T12:42:29.720Z,6.53
2022-11-04T12:46:42.277Z,5.00
2022-11-04T12:50:54.256Z,4.63
2022-11-04T12:55:06.194Z,4.72
2022-11-04T12:59:26.949Z,4.93
2022-11-04T13:03:34.679Z,8.88
2022-11-04T13:07:42.953Z,5.07
2022-11-04T13:11:53.871Z,5.43
2022-11-04T13:16:03.384Z,5.90
2022-11-04T13:20:22.667Z,5.50
2022-11-04T13:24:31.896Z,6.13
2022-11-04T13:28:34.098Z,5.70
2022-11-04T13:32:48.555Z,5.35
2022-11-04T13:37:18.018Z,4.57
2022-11-04T13:41:21.719Z,7.13
2022-11-04T13:45:23.686Z,5.15
2022-11-04T13:49:33.618Z,7.28
2022-11-04T13:53:48.505Z,5.35
2022-11-04T13:57:58.654Z,5.10
2022-11-04T14:02:20.918Z,4.78
2022-11-04T14:06:47.799Z,5.90
2022-11-04T14:10:49.556Z,3.00
2022-11-04T14:14:53.835Z,3.63
2022-11-04T14:18:55.921Z,3.97
2022-11-04T14:23:00.806Z,6.35
2022-11-04T14:27:02.669Z,4.85
2022-11-04T14:31:09.015Z,5.05
2022-11-04T14:35:18.857Z,3.83
2022-11-04T14:39:24.465Z,3.80
2022-11-04T14:43:36.004Z,4.22
2022-11-04T14:47:38.041Z,3.30
2022-11-04T14:51:40.881Z,3.85
2022-11-04T14:55:42.584Z,4.28
2022-11-04T14:59:44.653Z,6.38
2022-11-04T15:04:10.789Z,4.65
2022-11-04T15:08:45.464Z,2.40
2022-11-04T15:12:50.432Z,2.22
2022-11-04T15:16:55.890Z,6.03
2022-11-04T15:21:00.553Z,5.55
2022-11-04T15:25:05.830Z,4.13
2022-11-04T15:29:11.459Z,3.10
2022-11-04T15:33:17.977Z,6.20
2022-11-04T15:37:21.932Z,3.90
2022-11-04T15:41:44.155Z,5.22
2022-11-04T15:45:45.861Z,5.03
2022-11-04T15:49:49.191Z,5.53
2022-11-04T15:54:08.026Z,4.95
2022-11-04T15:58:15.025Z,5.20
2022-11-04T16:02:32.387Z,3.80
2022-11-04T16:10:40.097Z,2.45
2022-11-04T16:14:52.269Z,7.03
2022-11-04T16:18:57.139Z,6.15
2022-11-04T16:23:01.226Z,3.90
2022-11-04T16:27:03.026Z,3.80
2022-11-04T16:31:08.629Z,3.03
2022-11-04T16:35:22.065Z,3.47
2022-11-04T16:39:23.749Z,3.92
2022-11-04T16:43:25.451Z,6.32
2022-11-04T16:47:29.925Z,4.35
2022-11-04T16:51:34.396Z,3.95
2022-11-04T16:55:40.503Z,3.72
2022-11-04T16:59:42.365Z,6.18
2022-11-04T17:03:44.193Z,4.95
2022-11-04T17:07:53.540Z,2.80
2022-11-04T17:11:58.071Z,3.10
2022-11-04T17:16:00.335Z,4.85
2022-11-04T17:20:02.106Z,5.72
2022-11-04T17:24:04.688Z,5.15
2022-11-04T17:28:06.370Z,3.90
2022-11-04T17:32:09.136Z,5.20
2022-11-04T17:36:19.258Z,3.97
2022-11-04T17:40:23.037Z,7.15
2022-11-04T17:44:24.697Z,4.95
2022-11-04T17:48:26.355Z,4.30
2022-11-04T17:52:28.007Z,4.10
2022-11-04T17:56:30.771Z,4.80
2022-11-04T18:00:32.454Z,5.38
2022-11-04T18:04:34.255Z,3.97
2022-11-04T18:08:36.051Z,3.60
2022-11-04T18:12:37.877Z,7.30
2022-11-04T18:16:40.989Z,6.20
2022-11-04T18:20:43.367Z,4.88
2022-11-04T18:24:47.732Z,2.60
2022-11-04T18:28:50.452Z,3.47
2022-11-04T18:32:52.629Z,3.50
2022-11-04T18:36:56.088Z,2.38
2022-11-04T18:40:58.152Z,1.50
2022-11-04T18:45:07.243Z,2.00
2022-11-04T18:49:09.949Z,2.10
2022-11-04T18:53:12.435Z,1.98
2022-11-04T18:57:14.396Z,1.85
2022-11-04T19:01:22.570Z,1.95
2022-11-04T19:05:24.692Z,1.67
2022-11-04T19:13:57.423Z,2.08
2022-11-04T19:17:59.764Z,1.95
2022-11-04T19:22:01.588Z,3.00
2022-11-04T19:26:16.122Z,2.65
2022-11-04T19:30:18.309Z,2.20
2022-11-04T19:34:20.060Z,2.42
2022-11-04T19:38:24.964Z,3.65
2022-11-04T19:42:45.290Z,2.30
2022-11-04T19:46:47.765Z,2.22
2022-11-04T19:50:49.786Z,2.25
2022-11-04T19:54:51.519Z,2.33
2022-11-04T19:58:53.354Z,3.42
2022-11-04T20:02:55.733Z,3.42
2022-11-04T20:06:57.468Z,2.03
2022-11-04T20:11:03.154Z,2.45
2022-11-04T20:15:05.710Z,4.07
2022-11-04T20:19:07.442Z,3.45
2022-11-04T20:23:09.697Z,1.90
2022-11-04T20:27:15.156Z,3.20
2022-11-04T20:31:19.640Z,3.13
2022-11-04T20:36:21.042Z,4.60
2022-11-04T20:40:22.802Z,3.78
2022-11-04T20:44:24.816Z,4.78
2022-11-04T20:48:26.528Z,3.00
2022-11-04T20:52:28.252Z,3.33
2022-11-04T20:56:35.424Z,2.40
2022-11-04T21:04:38.830Z,2.60
2022-11-04T21:08:40.565Z,3.35
2022-11-04T21:12:42.272Z,1.83
2022-11-04T21:16:44.259Z,1.70
2022-11-04T21:20:46.417Z,1.60
2022-11-04T21:24:48.135Z,1.30
2022-11-04T21:28:54.965Z,1.80
2022-11-04T21:32:56.745Z,2.40
2022-11-04T21:36:58.484Z,1.50
2022-11-04T21:41:02.223Z,3.08
2022-11-04T21:45:04.285Z,2.17
2022-11-04T21:49:06.343Z,1.80
2022-11-04T21:53:08.132Z,1.90
2022-11-04T21:57:09.851Z,1.73
2022-11-04T22:01:18.046Z,1.95
2022-11-04T22:05:20.011Z,1.48
2022-11-04T22:09:21.824Z,2.10
2022-11-04T22:13:23.836Z,2.42
2022-11-04T22:17:25.581Z,2.13
2022-11-04T22:21:28.856Z,1.55
2022-11-04T22:25:30.832Z,4.03
2022-11-04T22:29:32.575Z,2.67
2022-11-04T22:33:34.480Z,1.75
2022-11-04T22:37:36.209Z,1.75
2022-11-04T22:41:38.158Z,1.40
2022-11-04T22:45:39.880Z,1.95
2022-11-04T22:49:41.637Z,1.90
2022-11-04T22:53:43.719Z,1.30
2022-11-04T22:57:45.451Z,1.58
2022-11-04T23:01:47.344Z,1.40
2022-11-04T23:05:49.137Z,1.50
2022-11-04T23:10:09.545Z,1.80
2022-11-04T23:14:33.125Z,2.50
2022-11-04T23:18:43.888Z,3.47
2022-11-04T23:23:04.245Z,2.05
2022-11-04T23:27:06.942Z,2.65
2022-11-04T23:31:08.762Z,1.65
2022-11-04T23:35:28.732Z,1.88
2022-11-04T23:39:30.523Z,3.67
2022-11-04T23:43:32.370Z,1.50
2022-11-04T23:47:55.933Z,1.83
2022-11-04T23:52:16.355Z,1.48
2022-11-04T23:56:36.626Z,1.60
